Time;durP1;ratioP1;P1;durP2;ratioP2;P2;SDS_P1;SDS_P2;PMS_P1;PMS_P2;Temp;Humidity;BMP_temperature;BMP_pressure;BME280_temperature;BME280_humidity;BME280_pressure;Samples;Min_cycle;Max_cycle;Signal;HPM_P1;HPM_P2
2023/07/09 00:01:12;;;;;;;12.65;8.13;;;21.70;99.90;;;;;;5034700;28;20395;-65
2023/07/09 00:03:37;;;;;;;10.35;7.50;;;21.60;99.90;;;;;;5034791;28;20022;-64
2023/07/09 00:06:03;;;;;;;13.07;8.00;;;21.60;99.90;;;;;;5033861;28;20047;-64
2023/07/09 00:08:31;;;;;;;12.43;7.65;;;21.50;99.90;;;;;;5034763;28;20357;-64
2023/07/09 00:10:57;;;;;;;12.43;7.18;;;21.40;99.90;;;;;;5034776;28;20503;-65
2023/07/09 00:13:25;;;;;;;11.07;7.40;;;21.30;99.90;;;;;;5034541;28;20061;-64
2023/07/09 00:15:51;;;;;;;9.90;7.45;;;21.20;99.90;;;;;;5034684;28;20028;-64
2023/07/09 00:18:16;;;;;;;8.02;7.13;;;21.10;99.90;;;;;;5034675;28;20013;-64
2023/07/09 00:20:43;;;;;;;10.65;7.28;;;21.00;99.90;;;;;;5034147;28;20021;-64
2023/07/09 00:23:13;;;;;;;12.65;7.90;;;21.00;99.90;;;;;;5034539;28;20079;-64
2023/07/09 00:25:41;;;;;;;10.98;7.00;;;20.90;99.90;;;;;;5034858;28;20094;-64
2023/07/09 00:28:17;;;;;;;12.45;8.30;;;20.80;96.00;;;;;;5034509;28;20036;-65
2023/07/09 00:30:44;;;;;;;13.63;8.48;;;20.70;96.30;;;;;;5034314;28;20368;-64
2023/07/09 00:33:14;;;;;;;12.45;7.75;;;20.70;94.80;;;;;;5033241;28;20471;-64
2023/07/09 00:35:41;;;;;;;14.35;8.40;;;20.60;91.60;;;;;;5034455;28;20029;-64
2023/07/09 00:38:13;;;;;;;11.38;8.02;;;20.60;90.00;;;;;;5034289;28;20394;-65
2023/07/09 00:40:48;;;;;;;10.73;8.38;;;20.60;90.30;;;;;;5034073;28;20021;-65
2023/07/09 00:43:16;;;;;;;10.32;7.85;;;20.60;1.00;;;;;;5033072;28;20056;-66
2023/07/09 00:45:41;;;;;;;12.75;8.60;;;20.60;99.90;;;;;;5034031;28;20549;-64
2023/07/09 00:48:13;;;;;;;12.50;7.88;;;20.60;1.00;;;;;;5034092;28;20030;-64
2023/07/09 00:50:47;;;;;;;9.18;7.10;;;20.60;99.90;;;;;;5033854;28;20087;-64
2023/07/09 00:53:20;;;;;;;13.65;7.65;;;20.50;99.90;;;;;;5033875;28;20532;-64
2023/07/09 00:55:52;;;;;;;10.15;7.10;;;20.50;1.00;;;;;;5033822;28;20513;-64
2023/07/09 00:58:21;;;;;;;12.25;7.80;;;20.40;1.00;;;;;;5033623;28;20029;-64
2023/07/09 01:00:53;;;;;;;11.05;7.13;;;20.40;1.00;;;;;;5033648;28;20112;-64
2023/07/09 01:03:42;;;;;;;12.90;8.02;;;20.30;76.10;;;;;;5034035;28;20022;-64
2023/07/09 01:06:08;;;;;;;11.18;7.90;;;20.30;1.00;;;;;;5033478;28;20040;-64
2023/07/09 01:08:35;;;;;;;10.38;7.72;;;20.20;99.90;;;;;;5033920;28;20475;-64
2023/07/09 01:11:01;;;;;;;11.90;8.45;;;20.10;99.90;;;;;;5033582;28;20025;-64
2023/07/09 01:13:28;;;;;;;11.73;8.10;;;20.00;1.00;;;;;;5033561;28;20160;-64
2023/07/09 01:15:55;;;;;;;11.13;8.05;;;19.90;99.90;;;;;;5031820;28;20025;-65
2023/07/09 01:18:22;;;;;;;14.57;8.40;;;19.80;99.90;;;;;;5033695;28;20029;-64
2023/07/09 01:20:48;;;;;;;12.60;9.02;;;19.80;99.90;;;;;;5033187;28;20022;-65
2023/07/09 01:23:14;;;;;;;10.05;8.10;;;19.70;1.00;;;;;;5033571;28;20029;-64
2023/07/09 01:25:46;;;;;;;12.90;8.07;;;19.70;99.90;;;;;;5033664;28;20029;-64
2023/07/09 01:28:12;;;;;;;10.23;7.45;;;19.60;99.90;;;;;;5032340;28;20053;-65
2023/07/09 01:30:40;;;;;;;11.80;8.52;;;19.60;99.90;;;;;;5033526;28;20075;-64
2023/07/09 01:33:07;;;;;;;10.70;8.32;;;19.60;99.90;;;;;;5033498;28;20035;-65
2023/07/09 01:35:35;;;;;;;11.68;8.07;;;19.60;99.90;;;;;;5032264;28;20080;-65
2023/07/09 01:38:02;;;;;;;10.38;7.90;;;19.60;99.90;;;;;;5033023;28;20029;-64
2023/07/09 01:40:29;;;;;;;13.75;8.27;;;19.60;99.90;;;;;;5031912;28;20079;-64
2023/07/09 01:42:57;;;;;;;11.70;7.68;;;19.60;99.90;;;;;;5032910;28;20137;-64
2023/07/09 01:45:24;;;;;;;15.13;8.90;;;19.50;99.90;;;;;;5033279;28;20080;-64
2023/07/09 01:47:49;;;;;;;11.48;8.15;;;19.50;99.90;;;;;;5033280;28;20035;-64
2023/07/09 01:50:16;;;;;;;13.40;8.70;;;19.50;99.90;;;;;;5033184;28;20101;-64
2023/07/09 01:52:43;;;;;;;12.27;8.88;;;19.50;1.00;;;;;;5033284;28;20494;-64
2023/07/09 01:55:10;;;;;;;14.77;8.82;;;19.40;1.00;;;;;;5033188;28;20108;-65
2023/07/09 01:57:36;;;;;;;10.80;8.25;;;19.40;99.90;;;;;;5033074;28;20519;-66
2023/07/09 02:00:05;;;;;;;11.25;8.10;;;19.40;1.00;;;;;;5033257;28;20076;-64
2023/07/09 02:02:32;;;;;;;12.20;8.50;;;19.30;1.00;;;;;;5032870;28;20025;-64
2023/07/09 02:04:58;;;;;;;13.68;8.90;;;19.30;99.90;;;;;;5032929;28;20021;-64
2023/07/09 02:07:24;;;;;;;11.00;7.90;;;19.30;99.90;;;;;;5033133;28;20549;-64
2023/07/09 02:09:51;;;;;;;12.82;8.60;;;19.30;99.90;;;;;;5032987;28;20029;-64
2023/07/09 02:12:17;;;;;;;11.65;8.60;;;19.30;99.90;;;;;;5033109;28;20038;-64
2023/07/09 02:14:44;;;;;;;14.07;9.50;;;19.30;1.00;;;;;;5032911;28;20022;-64
2023/07/09 02:17:12;;;;;;;11.23;8.63;;;19.20;1.00;;;;;;5033133;28;20053;-64
2023/07/09 02:19:38;;;;;;;13.00;9.05;;;19.20;1.00;;;;;;5032864;28;20475;-65
2023/07/09 02:22:04;;;;;;;12.25;8.77;;;19.10;1.00;;;;;;5032822;28;20025;-64
2023/07/09 02:24:30;;;;;;;14.07;9.98;;;19.10;1.00;;;;;;5032743;28;20528;-64
2023/07/09 02:26:57;;;;;;;13.00;9.20;;;19.00;1.00;;;;;;5032884;28;20034;-64
2023/07/09 02:29:24;;;;;;;10.90;8.52;;;18.90;1.00;;;;;;5034242;28;20502;-65
2023/07/09 02:31:51;;;;;;;13.40;9.27;;;18.90;1.00;;;;;;5036513;28;20056;-64
2023/07/09 02:34:18;;;;;;;12.75;8.98;;;18.90;1.00;;;;;;5036460;28;20065;-64
2023/07/09 02:36:45;;;;;;;13.85;9.25;;;18.90;1.00;;;;;;5036425;28;20079;-64
2023/07/09 02:39:12;;;;;;;13.55;9.48;;;18.90;1.00;;;;;;5036185;28;20037;-65
2023/07/09 02:41:39;;;;;;;16.55;10.10;;;19.00;1.00;;;;;;5036136;28;20060;-65
2023/07/09 02:44:06;;;;;;;13.32;8.95;;;19.00;1.00;;;;;;5036314;28;20060;-64
2023/07/09 02:46:32;;;;;;;12.35;9.05;;;19.10;1.00;;;;;;5035248;28;20022;-64
2023/07/09 02:48:58;;;;;;;14.15;9.35;;;19.10;99.90;;;;;;5036358;28;20036;-64
2023/07/09 02:51:26;;;;;;;11.35;9.13;;;19.00;99.90;;;;;;5036119;28;20029;-64
2023/07/09 02:53:54;;;;;;;13.65;8.43;;;19.00;99.90;;;;;;5036083;28;20029;-64
2023/07/09 02:56:19;;;;;;;10.63;8.40;;;19.00;99.90;;;;;;5036052;28;20029;-64
2023/07/09 02:58:45;;;;;;;14.07;8.93;;;19.00;99.90;;;;;;5036074;28;20044;-64
2023/07/09 03:01:12;;;;;;;11.25;8.82;;;18.90;99.90;;;;;;5035893;28;20068;-64
2023/07/09 03:03:38;;;;;;;13.55;9.07;;;18.90;1.00;;;;;;5036121;28;20022;-66
2023/07/09 03:06:05;;;;;;;12.45;8.55;;;18.90;1.00;;;;;;5035979;28;20471;-64
2023/07/09 03:08:30;;;;;;;11.60;8.35;;;18.90;1.00;;;;;;5036000;28;20112;-64
2023/07/09 03:10:56;;;;;;;12.93;8.73;;;18.90;99.90;;;;;;5035976;28;20068;-64
2023/07/09 03:13:22;;;;;;;15.98;9.52;;;18.90;1.00;;;;;;5035406;28;20443;-64
2023/07/09 03:15:57;;;;;;;11.88;8.35;;;18.90;99.90;;;;;;5035715;28;20063;-64
2023/07/09 03:18:23;;;;;;;14.13;9.52;;;19.00;99.90;;;;;;5035519;28;20030;-64
2023/07/09 03:20:49;;;;;;;17.60;8.98;;;19.00;99.90;;;;;;5035311;28;20021;-64
2023/07/09 03:23:14;;;;;;;16.52;9.45;;;19.00;99.90;;;;;;5035810;28;20022;-64
2023/07/09 03:25:42;;;;;;;11.80;9.25;;;19.10;99.90;;;;;;5035387;28;20487;-65
2023/07/09 03:28:07;;;;;;;10.93;8.50;;;19.10;99.90;;;;;;5035667;28;20029;-64
2023/07/09 03:30:33;;;;;;;10.77;8.52;;;19.10;99.90;;;;;;5035447;28;20030;-64
2023/07/09 03:33:00;;;;;;;14.00;9.32;;;19.10;99.90;;;;;;5035327;28;20040;-64
2023/07/09 03:35:25;;;;;;;16.73;9.93;;;19.00;99.90;;;;;;5035306;28;20075;-64
2023/07/09 03:37:51;;;;;;;11.90;8.70;;;19.10;99.90;;;;;;5035246;28;20468;-64
2023/07/09 03:40:23;;;;;;;13.82;10.10;;;19.10;99.90;;;;;;5035321;28;20037;-64
2023/07/09 03:42:49;;;;;;;14.25;9.68;;;19.20;99.90;;;;;;5034955;28;20052;-64
2023/07/09 03:45:15;;;;;;;13.90;9.70;;;19.20;99.90;;;;;;5035372;28;20189;-64
2023/07/09 03:47:41;;;;;;;11.32;8.80;;;19.10;99.90;;;;;;5035143;28;20025;-64
2023/07/09 03:50:09;;;;;;;12.93;8.88;;;19.10;99.90;;;;;;5035140;28;20427;-64
2023/07/09 03:52:35;;;;;;;12.95;9.07;;;19.20;99.90;;;;;;5035315;28;20029;-64
2023/07/09 03:55:03;;;;;;;17.63;9.98;;;19.20;99.90;;;;;;5034808;28;20496;-64
2023/07/09 03:57:30;;;;;;;12.35;8.82;;;19.20;99.90;;;;;;5035095;28;20160;-64
2023/07/09 03:59:55;;;;;;;11.48;9.68;;;19.30;99.90;;;;;;5034716;28;20029;-64
2023/07/09 04:02:21;;;;;;;12.85;9.15;;;19.40;99.90;;;;;;5034743;28;20021;-64
2023/07/09 04:04:46;;;;;;;14.95;9.55;;;19.40;99.90;;;;;;5035074;28;20028;-64
2023/07/09 04:07:12;;;;;;;12.98;9.07;;;19.40;99.90;;;;;;5034915;28;20021;-64
2023/07/09 04:09:38;;;;;;;15.35;9.57;;;19.40;99.90;;;;;;5034936;28;20057;-64
2023/07/09 04:12:04;;;;;;;11.20;8.55;;;19.50;99.90;;;;;;5034593;28;20186;-65
2023/07/09 04:14:29;;;;;;;17.33;10.00;;;19.60;99.90;;;;;;5034787;28;20040;-64
2023/07/09 04:16:55;;;;;;;14.18;9.25;;;19.70;99.90;;;;;;5034542;28;20120;-64
2023/07/09 04:19:20;;;;;;;13.38;9.00;;;19.80;99.90;;;;;;5034754;28;20034;-64
2023/07/09 04:21:46;;;;;;;11.63;9.55;;;19.90;18.10;;;;;;5034409;28;20033;-63
2023/07/09 04:24:16;;;;;;;15.55;9.10;;;20.00;1.00;;;;;;5034456;28;20021;-64
2023/07/09 04:26:42;;;;;;;17.42;9.95;;;20.10;1.00;;;;;;5034547;28;20108;-64
2023/07/09 04:29:07;;;;;;;11.68;9.40;;;20.10;24.70;;;;;;5034639;28;20123;-64
2023/07/09 04:31:33;;;;;;;15.65;9.43;;;20.10;1.00;;;;;;5034031;28;20468;-64
2023/07/09 04:33:59;;;;;;;12.18;9.32;;;20.20;1.00;;;;;;5034185;28;20100;-64
2023/07/09 04:36:26;;;;;;;14.40;9.15;;;20.40;1.00;;;;;;5034145;28;20027;-64
2023/07/09 04:38:51;;;;;;;14.48;9.48;;;20.50;99.90;;;;;;5034301;28;20032;-64
2023/07/09 04:41:17;;;;;;;11.80;8.48;;;20.70;99.90;;;;;;5033985;28;20403;-64
2023/07/09 04:43:43;;;;;;;12.55;9.05;;;21.10;99.90;;;;;;5034186;28;20025;-64
2023/07/09 04:46:08;;;;;;;11.10;8.75;;;21.90;1.00;;;;;;5034042;28;20028;-64
2023/07/09 04:48:34;;;;;;;11.48;8.88;;;22.60;99.90;;;;;;5034076;28;20036;-65
2023/07/09 04:50:59;;;;;;;13.23;8.80;;;23.20;99.90;;;;;;5033539;28;20029;-65
2023/07/09 04:53:26;;;;;;;12.75;9.00;;;23.70;99.90;;;;;;5033845;28;20021;-64
2023/07/09 04:55:51;;;;;;;12.60;9.43;;;24.20;35.80;;;;;;5033846;28;20494;-64
2023/07/09 04:58:18;;;;;;;12.73;9.02;;;24.40;22.30;;;;;;5033686;28;20026;-64
2023/07/09 05:00:44;;;;;;;14.55;9.07;;;24.60;99.90;;;;;;5033890;28;20057;-64
2023/07/09 05:03:09;;;;;;;12.55;8.60;;;25.20;8.20;;;;;;5033501;28;20064;-64
2023/07/09 05:05:35;;;;;;;10.05;8.48;;;25.50;59.00;;;;;;5033891;28;20055;-64
2023/07/09 05:08:01;;;;;;;9.55;8.35;;;25.70;12.10;;;;;;5033832;28;20103;-64
2023/07/09 05:10:26;;;;;;;10.25;8.07;;;26.10;56.10;;;;;;5033358;28;20028;-64
2023/07/09 05:12:54;;;;;;;10.93;8.32;;;26.40;72.50;;;;;;5033731;28;20037;-64
2023/07/09 05:15:22;;;;;;;10.73;8.63;;;26.40;98.90;;;;;;5033243;28;20029;-64
2023/07/09 05:17:48;;;;;;;13.43;8.93;;;26.40;99.70;;;;;;5034255;28;20078;-64
2023/07/09 05:20:15;;;;;;;9.48;8.05;;;26.20;99.90;;;;;;5033477;28;20034;-64
2023/07/09 05:22:40;;;;;;;11.65;8.20;;;26.10;99.90;;;;;;5033369;28;20029;-64
2023/07/09 05:25:06;;;;;;;10.93;8.38;;;26.00;99.90;;;;;;5033654;28;20037;-64
2023/07/09 05:27:32;;;;;;;13.27;8.60;;;26.60;99.90;;;;;;5033470;28;20041;-65
2023/07/09 05:29:58;;;;;;;9.38;8.10;;;27.00;99.90;;;;;;5033413;28;20522;-65
2023/07/09 05:32:24;;;;;;;10.80;7.43;;;27.60;99.90;;;;;;5033298;28;20528;-65
2023/07/09 05:34:49;;;;;;;10.50;6.97;;;27.70;99.90;;;;;;5033242;28;20025;-64
2023/07/09 05:37:15;;;;;;;7.80;6.85;;;28.00;99.90;;;;;;5033138;28;20075;-65
2023/07/09 05:39:40;;;;;;;9.50;7.38;;;27.90;99.90;;;;;;5033281;28;20097;-65
2023/07/09 05:42:07;;;;;;;10.88;7.70;;;28.70;99.40;;;;;;5033061;28;20064;-64
2023/07/09 05:44:32;;;;;;;9.43;6.75;;;28.70;99.60;;;;;;5033257;28;20029;-65
2023/07/09 05:46:58;;;;;;;9.27;7.60;;;29.20;98.40;;;;;;5032931;28;20034;-65
2023/07/09 05:49:23;;;;;;;13.10;7.28;;;29.40;98.00;;;;;;5033090;28;20026;-65
2023/07/09 05:51:49;;;;;;;9.30;7.43;;;29.20;97.90;;;;;;5033118;28;20025;-65
2023/07/09 05:54:14;;;;;;;10.27;7.55;;;29.50;98.10;;;;;;5033082;28;20112;-65
2023/07/09 05:56:40;;;;;;;10.57;7.82;;;29.70;97.30;;;;;;5033161;28;20113;-66
2023/07/09 05:59:05;;;;;;;12.23;7.28;;;29.90;97.40;;;;;;5033332;28;20033;-65
2023/07/09 06:01:32;;;;;;;10.73;7.10;;;30.40;96.20;;;;;;5033077;28;20143;-65
2023/07/09 06:03:57;;;;;;;9.20;6.75;;;30.70;95.60;;;;;;5035591;28;20387;-66
2023/07/09 06:06:23;;;;;;;11.85;7.20;;;30.20;96.00;;;;;;5037005;28;20032;-65
2023/07/09 06:08:50;;;;;;;10.23;6.97;;;30.30;96.40;;;;;;5036836;28;20029;-66
2023/07/09 06:11:17;;;;;;;9.68;6.80;;;30.20;95.70;;;;;;5036979;28;20053;-65
2023/07/09 06:13:42;;;;;;;9.52;6.85;;;29.80;96.40;;;;;;5036715;28;20557;-65
2023/07/09 06:16:09;;;;;;;11.40;6.80;;;30.10;96.10;;;;;;5036882;28;20053;-65
2023/07/09 06:18:34;;;;;;;10.57;7.15;;;30.10;96.40;;;;;;5036909;28;20391;-65
2023/07/09 06:21:02;;;;;;;12.05;6.28;;;30.10;96.20;;;;;;5036524;28;20026;-65
2023/07/09 06:23:28;;;;;;;9.02;6.68;;;30.50;96.00;;;;;;5019455;28;20502;-65
2023/07/09 06:25:54;;;;;;;8.13;6.50;;;30.20;96.20;;;;;;5036635;28;20025;-66
2023/07/09 06:28:22;;;;;;;8.52;6.85;;;30.10;96.70;;;;;;5036644;28;20026;-65
2023/07/09 06:30:48;;;;;;;9.95;6.88;;;30.90;95.40;;;;;;5035454;28;20079;-65
2023/07/09 06:33:15;;;;;;;8.43;6.57;;;31.70;94.40;;;;;;5036316;28;20029;-65
2023/07/09 06:35:59;;;;;;;12.07;6.63;;;32.40;93.20;;;;;;5035298;28;20056;-67
2023/07/09 06:38:25;;;;;;;6.88;6.10;;;32.30;92.80;;;;;;5036206;28;20048;-65
2023/07/09 06:40:50;;;;;;;8.68;6.85;;;32.40;92.60;;;;;;5036371;28;20400;-66
2023/07/09 06:43:17;;;;;;;9.80;6.70;;;32.40;92.50;;;;;;5035131;28;20483;-65
2023/07/09 06:45:59;;;;;;;12.45;6.78;;;31.90;92.50;;;;;;5036536;28;20021;-68
2023/07/09 06:48:27;;;;;;;8.77;6.20;;;31.70;92.50;;;;;;5036401;28;20357;-65
2023/07/09 06:50:54;;;;;;;7.60;5.82;;;32.10;92.80;;;;;;5034971;28;20540;-65
2023/07/09 06:53:20;;;;;;;9.07;6.80;;;32.90;91.80;;;;;;5036161;28;20100;-65
2023/07/09 06:55:47;;;;;;;9.23;6.45;;;33.10;91.30;;;;;;5036139;28;20033;-65
2023/07/09 06:58:12;;;;;;;8.48;6.07;;;32.90;91.60;;;;;;5036089;28;20022;-66
2023/07/09 07:00:38;;;;;;;9.98;6.80;;;33.10;91.20;;;;;;5036154;28;20383;-65
2023/07/09 07:03:05;;;;;;;9.43;6.45;;;32.60;91.20;;;;;;5035895;28;20029;-66
2023/07/09 07:05:31;;;;;;;10.43;6.50;;;31.90;92.70;;;;;;5036020;28;20021;-65
2023/07/09 07:07:57;;;;;;;7.05;6.30;;;32.20;92.30;;;;;;5035900;28;20108;-66
2023/07/09 07:10:22;;;;;;;8.52;6.72;;;32.60;92.30;;;;;;5036039;28;20052;-66
2023/07/09 07:12:48;;;;;;;9.65;6.95;;;33.00;92.30;;;;;;5035829;28;20432;-66
2023/07/09 07:15:16;;;;;;;12.10;7.05;;;33.10;92.20;;;;;;5035279;28;20041;-66
2023/07/09 07:17:42;;;;;;;8.93;6.90;;;32.70;92.50;;;;;;5035578;28;20021;-65
2023/07/09 07:20:10;;;;;;;9.15;6.38;;;33.00;91.80;;;;;;5035779;28;20534;-65
2023/07/09 07:22:38;;;;;;;10.98;6.53;;;32.70;93.00;;;;;;5035448;28;20128;-65
2023/07/09 07:25:05;;;;;;;12.32;6.97;;;32.90;92.00;;;;;;5035662;28;20051;-65
2023/07/09 07:27:30;;;;;;;10.05;6.55;;;33.90;91.40;;;;;;5035654;28;20024;-65
2023/07/09 07:29:56;;;;;;;11.48;6.78;;;34.30;90.70;;;;;;5035585;28;20025;-65
2023/07/09 07:32:21;;;;;;;8.10;6.35;;;34.30;90.50;;;;;;5035404;28;20021;-66
2023/07/09 07:34:48;;;;;;;7.95;6.75;;;33.70;90.80;;;;;;5035494;28;20033;-65
2023/07/09 07:37:14;;;;;;;7.97;6.38;;;34.30;91.30;;;;;;5035356;28;20476;-66
2023/07/09 07:39:40;;;;;;;11.50;6.82;;;34.80;90.50;;;;;;5034279;28;20036;-65
2023/07/09 07:42:06;;;;;;;10.20;6.65;;;35.00;89.40;;;;;;5034932;28;20415;-65
2023/07/09 07:44:32;;;;;;;11.77;6.75;;;34.40;90.30;;;;;;5035278;28;20080;-65
2023/07/09 07:46:57;;;;;;;8.80;6.55;;;35.00;90.10;;;;;;5035099;28;20021;-65
2023/07/09 07:49:23;;;;;;;11.15;6.68;;;35.50;87.10;;;;;;5035091;28;20021;-65
2023/07/09 07:51:49;;;;;;;9.45;6.90;;;36.40;85.60;;;;;;5035094;28;20032;-65
2023/07/09 07:54:14;;;;;;;7.60;6.35;;;35.70;85.40;;;;;;5035218;28;20041;-65
2023/07/09 07:56:41;;;;;;;8.45;6.30;;;34.80;86.90;;;;;;5034693;28;20025;-65
2023/07/09 07:59:07;;;;;;;12.43;7.25;;;34.80;87.60;;;;;;5035115;28;20068;-65
2023/07/09 08:01:35;;;;;;;11.02;6.57;;;34.90;85.20;;;;;;5034735;28;20028;-65
2023/07/09 08:04:01;;;;;;;12.25;6.93;;;34.90;85.80;;;;;;5034558;28;20045;-65
2023/07/09 08:06:27;;;;;;;9.20;6.90;;;35.40;84.20;;;;;;5034994;28;20424;-65
2023/07/09 08:08:52;;;;;;;8.70;6.78;;;35.50;84.10;;;;;;5034721;28;20065;-65
2023/07/09 08:11:18;;;;;;;9.88;6.60;;;35.30;83.80;;;;;;5034770;28;20484;-65
2023/07/09 08:13:43;;;;;;;9.68;6.20;;;35.40;85.00;;;;;;5034766;28;20044;-65
2023/07/09 08:16:11;;;;;;;7.95;6.50;;;36.50;83.00;;;;;;5034711;28;20022;-63
2023/07/09 08:18:37;;;;;;;11.00;7.00;;;35.70;83.10;;;;;;5034944;28;20079;-65
2023/07/09 08:21:03;;;;;;;13.68;7.70;;;35.30;84.50;;;;;;5034500;28;20431;-65
2023/07/09 08:23:29;;;;;;;11.85;6.88;;;35.40;83.50;;;;;;5034401;28;20032;-65
2023/07/09 08:25:56;;;;;;;11.65;7.28;;;35.60;83.90;;;;;;5033308;28;20055;-65
2023/07/09 08:28:21;;;;;;;9.48;6.95;;;36.10;81.70;;;;;;5034599;28;20472;-66
2023/07/09 08:30:47;;;;;;;12.40;7.35;;;36.60;82.40;;;;;;5034453;28;20116;-65
2023/07/09 08:33:12;;;;;;;11.05;7.25;;;36.00;81.80;;;;;;5034101;28;20065;-66
2023/07/09 08:35:41;;;;;;;11.48;7.15;;;36.00;81.10;;;;;;5034336;28;20033;-65
2023/07/09 08:38:07;;;;;;;11.23;7.43;;;36.20;81.20;;;;;;5034153;28;20108;-65
2023/07/09 08:40:32;;;;;;;10.55;7.20;;;37.20;79.90;;;;;;5034084;28;20131;-65
2023/07/09 08:43:10;;;;;;;10.75;6.50;;;37.50;78.20;;;;;;5033844;28;20479;-65
2023/07/09 08:45:47;;;;;;;9.52;7.03;;;36.60;79.50;;;;;;5033977;28;20084;-65
2023/07/09 08:48:26;;;;;;;12.13;7.60;;;36.30;81.70;;;;;;5034080;28;20112;-65
2023/07/09 08:50:56;;;;;;;10.25;7.32;;;36.10;81.10;;;;;;5034099;28;20021;-65
2023/07/09 08:53:33;;;;;;;7.82;7.00;;;35.90;80.30;;;;;;5033949;28;20080;-65
2023/07/09 08:55:59;;;;;;;11.57;7.35;;;36.60;81.50;;;;;;5032657;28;20502;-65
2023/07/09 08:58:28;;;;;;;8.55;7.38;;;37.20;80.10;;;;;;5033989;28;20033;-65
2023/07/09 09:00:57;;;;;;;11.82;6.97;;;37.90;77.00;;;;;;5032458;28;20057;-65
2023/07/09 09:06:17;;;;;;;13.32;7.07;;;38.10;77.20;;;;;;5111146;27;20434;-65
2023/07/09 09:11:48;;;;;;;9.10;7.20;;;37.70;77.50;;;;;;5111104;27;20177;-64
2023/07/09 09:14:29;;;;;;;9.05;6.63;;;37.70;74.00;;;;;;5110892;28;20106;-65
2023/07/09 09:16:56;;;;;;;9.98;7.00;;;37.50;74.50;;;;;;5111045;28;20103;-64
2023/07/09 09:22:11;;;;;;;10.20;7.78;;;37.30;76.60;;;;;;5070616;28;20357;-65
2023/07/09 09:24:59;;;;;;;8.35;6.95;;;37.10;75.60;;;;;;5069400;28;20033;-65
2023/07/09 09:27:25;;;;;;;10.27;6.88;;;37.20;75.10;;;;;;5070364;28;20113;-65
2023/07/09 09:29:50;;;;;;;12.77;7.43;;;37.00;76.30;;;;;;5070328;28;20068;-65
2023/07/09 09:32:24;;;;;;;14.60;6.90;;;37.00;76.70;;;;;;5070400;28;20029;-66
2023/07/09 09:34:50;;;;;;;15.68;6.97;;;38.10;78.80;;;;;;5070683;28;20052;-65
2023/07/09 09:37:29;;;;;;;11.07;7.45;;;38.90;74.60;;;;;;5070567;28;20029;-65
2023/07/09 09:39:55;;;;;;;10.77;7.05;;;39.10;75.00;;;;;;5070233;28;20029;-65
2023/07/09 09:42:25;;;;;;;11.25;6.82;;;38.50;72.20;;;;;;5069228;28;20029;-66
2023/07/09 09:44:54;;;;;;;11.95;7.68;;;38.70;71.90;;;;;;5070238;28;20077;-66
2023/07/09 09:47:19;;;;;;;15.00;6.97;;;39.30;70.80;;;;;;5069926;28;20033;-66
2023/07/09 09:49:45;;;;;;;9.15;6.70;;;39.30;69.70;;;;;;5070046;28;20024;-66
2023/07/09 09:52:14;;;;;;;12.52;6.90;;;38.60;69.60;;;;;;5070004;28;20021;-67
2023/07/09 09:54:41;;;;;;;9.88;6.93;;;38.20;71.40;;;;;;5070045;28;20017;-66
2023/07/09 09:57:18;;;;;;;8.50;6.35;;;38.40;71.50;;;;;;5068717;28;20478;-66
2023/07/09 09:59:46;;;;;;;10.85;7.35;;;38.40;72.90;;;;;;5070051;28;20024;-66
2023/07/09 10:02:18;;;;;;;8.27;6.85;;;38.70;71.40;;;;;;5069935;28;20028;-66
2023/07/09 10:04:45;;;;;;;9.55;6.68;;;39.10;70.50;;;;;;5068669;28;20025;-63
2023/07/09 10:07:32;;;;;;;12.63;7.00;;;38.90;67.90;;;;;;5069793;28;20028;-65
2023/07/09 10:09:58;;;;;;;9.50;6.63;;;38.20;70.40;;;;;;5069653;28;20024;-64
2023/07/09 10:12:47;;;;;;;9.85;6.65;;;38.40;71.50;;;;;;5069624;28;20478;-65
2023/07/09 10:15:40;;;;;;;9.00;6.45;;;38.60;70.60;;;;;;5069316;28;20121;-64
2023/07/09 10:18:13;;;;;;;;;;;38.70;68.40;;;;;;5069753;28;20036;-65
2023/07/09 10:21:08;;;;;;;8.65;6.72;;;39.60;67.20;;;;;;5069232;28;19923;-65
2023/07/09 10:23:43;;;;;;;8.90;6.80;;;39.00;65.10;;;;;;5049432;28;20547;-65
2023/07/09 10:26:32;;;;;;;11.68;7.22;;;38.10;70.30;;;;;;5049636;28;20464;-65
2023/07/09 10:29:27;;;;;;;9.98;6.72;;;39.00;67.10;;;;;;5049398;28;20075;-65
2023/07/09 10:32:09;;;;;;;9.50;7.30;;;38.80;66.10;;;;;;5044466;28;20037;-65
2023/07/09 10:34:51;;;;;;;8.50;6.43;;;39.10;69.70;;;;;;5035986;28;20053;-65
2023/07/09 10:37:47;;;;;;;14.93;6.90;;;39.60;67.40;;;;;;5036184;28;20036;-65
2023/07/09 10:40:19;;;;;;;11.13;6.22;;;39.60;64.10;;;;;;5035842;28;20025;-65
2023/07/09 10:42:50;;;;;;;10.48;6.20;;;39.30;66.10;;;;;;5035900;28;20542;-64
2023/07/09 10:45:34;;;;;;;8.00;5.75;;;39.00;67.30;;;;;;5035909;28;20391;-65
2023/07/09 10:48:06;;;;;;;10.45;6.50;;;39.10;64.80;;;;;;5034645;28;20028;-65
2023/07/09 10:50:40;;;;;;;9.27;6.60;;;38.30;70.20;;;;;;5035765;28;20539;-64
2023/07/09 10:53:15;;;;;;;10.40;6.40;;;38.40;65.90;;;;;;5035476;28;20033;-64
2023/07/09 10:56:05;;;;;;;9.90;6.50;;;38.10;69.10;;;;;;5035681;28;20025;-64
2023/07/09 10:58:38;;;;;;;9.50;6.32;;;37.80;68.80;;;;;;5035474;28;20026;-64
2023/07/09 11:01:04;;;;;;;12.65;6.80;;;38.00;69.80;;;;;;5035410;28;20030;-64
2023/07/09 11:03:50;;;;;;;12.98;6.55;;;38.20;70.60;;;;;;5035465;28;20395;-65
2023/07/09 11:06:39;;;;;;;10.55;6.22;;;37.80;67.50;;;;;;5034156;28;20029;-65
2023/07/09 11:09:14;;;;;;;8.27;5.57;;;37.90;69.60;;;;;;5035501;28;20096;-64
2023/07/09 11:11:47;;;;;;;11.60;6.20;;;37.20;68.50;;;;;;5035537;28;20515;-65
2023/07/09 11:14:35;;;;;;;10.02;6.25;;;36.90;67.60;;;;;;5035340;28;20120;-65
2023/07/09 11:17:01;;;;;;;9.02;6.45;;;37.20;69.40;;;;;;5035105;28;20029;-65
2023/07/09 11:19:27;;;;;;;8.23;6.22;;;36.70;70.70;;;;;;5035237;28;20586;-65
2023/07/09 11:22:02;;;;;;;11.55;6.30;;;36.70;69.10;;;;;;5034869;28;20077;-65
2023/07/09 11:24:46;;;;;;;11.35;6.40;;;36.80;69.90;;;;;;5018205;28;20026;-65
2023/07/09 11:27:29;;;;;;;10.90;6.50;;;36.40;69.30;;;;;;5034948;28;20032;-64
2023/07/09 11:30:00;;;;;;;7.85;5.88;;;36.00;70.00;;;;;;5035047;28;20017;-65
2023/07/09 11:32:27;;;;;;;10.68;6.65;;;36.30;72.30;;;;;;5034940;28;20044;-64
2023/07/09 11:34:53;;;;;;;10.75;5.95;;;36.10;71.80;;;;;;5035014;28;20398;-64
2023/07/09 11:37:23;;;;;;;10.30;6.22;;;36.10;68.80;;;;;;5034982;28;20483;-65
2023/07/09 11:39:49;;;;;;;7.63;5.45;;;35.90;72.20;;;;;;5034726;28;20479;-65
2023/07/09 11:42:33;;;;;;;8.23;5.63;;;36.50;75.30;;;;;;5034726;28;20026;-64
2023/07/09 11:45:07;;;;;;;10.32;5.68;;;36.10;68.90;;;;;;5032500;28;20057;-64
2023/07/09 11:47:39;;;;;;;9.13;5.53;;;36.20;69.10;;;;;;5034698;28;20458;-64
2023/07/09 11:50:31;;;;;;;8.00;5.25;;;35.90;69.60;;;;;;5034797;28;20025;-64
2023/07/09 11:53:02;;;;;;;10.82;5.78;;;36.00;68.20;;;;;;5034439;28;20025;-64
2023/07/09 11:55:45;;;;;;;9.05;6.25;;;36.30;68.20;;;;;;5033083;28;20025;-64
2023/07/09 11:58:14;;;;;;;9.93;5.57;;;36.00;69.10;;;;;;5033429;28;20083;-64
2023/07/09 12:00:43;;;;;;;8.05;5.50;;;36.10;68.10;;;;;;5034392;28;20029;-65
2023/07/09 12:03:17;;;;;;;9.80;5.55;;;36.30;68.90;;;;;;5034516;28;20040;-64
2023/07/09 12:05:49;;;;;;;6.75;5.38;;;36.30;67.40;;;;;;5034463;28;20022;-64
2023/07/09 12:08:15;;;;;;;7.43;5.55;;;36.40;68.00;;;;;;5033084;28;20029;-65
2023/07/09 12:10:42;;;;;;;12.18;5.75;;;35.90;68.60;;;;;;5034236;28;20064;-65
2023/07/09 12:13:11;;;;;;;10.13;6.07;;;36.20;70.40;;;;;;5034424;28;20116;-65
2023/07/09 12:15:39;;;;;;;12.13;5.75;;;36.10;70.60;;;;;;5034202;28;20025;-64
2023/07/09 12:18:12;;;;;;;10.20;5.47;;;36.30;69.70;;;;;;5033092;28;20064;-65
2023/07/09 12:20:38;;;;;;;7.88;5.40;;;36.50;70.30;;;;;;5032721;28;20077;-64
2023/07/09 12:23:28;;;;;;;8.93;5.55;;;36.40;68.80;;;;;;5034028;28;20060;-64
2023/07/09 12:25:55;;;;;;;12.52;5.95;;;36.00;70.70;;;;;;5033989;28;20075;-64
2023/07/09 12:28:22;;;;;;;9.65;5.95;;;36.30;72.10;;;;;;5034050;28;20018;-65
2023/07/09 12:30:50;;;;;;;10.90;5.90;;;36.50;72.30;;;;;;5033937;28;20033;-66
2023/07/09 12:33:17;;;;;;;13.45;6.40;;;36.40;69.60;;;;;;5032690;28;20037;-65
2023/07/09 12:35:44;;;;;;;8.35;5.65;;;36.30;69.90;;;;;;5033697;28;20479;-65
2023/07/09 12:38:20;;;;;;;11.00;6.00;;;36.60;68.90;;;;;;5033691;28;20021;-65
2023/07/09 12:40:46;;;;;;;8.68;5.65;;;36.30;71.30;;;;;;5033689;28;20025;-65
2023/07/09 12:43:12;;;;;;;8.98;6.13;;;36.50;71.00;;;;;;5033882;28;20482;-65
2023/07/09 12:45:38;;;;;;;10.90;5.93;;;36.00;68.60;;;;;;5033575;28;20053;-65
2023/07/09 12:48:04;;;;;;;8.57;6.03;;;36.10;70.00;;;;;;5033435;28;20520;-65
2023/07/09 12:50:32;;;;;;;11.63;6.18;;;36.20;71.30;;;;;;5033703;28;20033;-64
2023/07/09 12:53:03;;;;;;;9.18;6.40;;;36.20;69.80;;;;;;5033553;28;20033;-64
2023/07/09 12:55:36;;;;;;;11.35;6.00;;;36.30;69.50;;;;;;5033233;28;20053;-64
2023/07/09 12:58:02;;;;;;;10.05;6.00;;;35.90;69.50;;;;;;5032204;28;20083;-64